sensor_id;sensor_type;location;lat;lon;timestamp;pressure;altitude;pressure_sealevel;temperature;humidity
36380;BME280;22411;53.016;18.632;2023-07-29T00:01:42;99916.91;;;15.80;100.00
36380;BME280;22411;53.016;18.632;2023-07-29T00:04:08;99923.28;;;15.77;100.00
36380;BME280;22411;53.016;18.632;2023-07-29T00:06:35;99924.38;;;15.75;100.00
36380;BME280;22411;53.016;18.632;2023-07-29T00:09:02;99927.47;;;15.70;100.00
36380;BME280;22411;53.016;18.632;2023-07-29T00:11:27;99923.38;;;15.67;100.00
36380;BME280;22411;53.016;18.632;2023-07-29T00:13:53;99926.13;;;15.66;100.00
36380;BME280;22411;53.016;18.632;2023-07-29T00:16:19;99932.59;;;15.62;100.00
36380;BME280;22411;53.016;18.632;2023-07-29T00:18:51;99935.22;;;15.62;100.00
36380;BME280;22411;53.016;18.632;2023-07-29T00:21:16;99939.09;;;15.58;100.00
36380;BME280;22411;53.016;18.632;2023-07-29T00:23:42;99937.44;;;15.57;100.00
36380;BME280;22411;53.016;18.632;2023-07-29T00:26:08;99941.84;;;15.56;100.00
36380;BME280;22411;53.016;18.632;2023-07-29T00:28:33;99936.94;;;15.53;100.00
36380;BME280;22411;53.016;18.632;2023-07-29T00:30:59;99935.28;;;15.52;100.00
36380;BME280;22411;53.016;18.632;2023-07-29T00:33:25;99936.09;;;15.53;100.00
36380;BME280;22411;53.016;18.632;2023-07-29T00:35:50;99936.75;;;15.55;100.00
36380;BME280;22411;53.016;18.632;2023-07-29T00:38:16;99942.69;;;15.57;100.00
36380;BME280;22411;53.016;18.632;2023-07-29T00:40:42;99938.44;;;15.56;100.00
36380;BME280;22411;53.016;18.632;2023-07-29T00:43:08;99944.91;;;15.52;100.00
36380;BME280;22411;53.016;18.632;2023-07-29T00:45:34;99935.91;;;15.46;100.00
36380;BME280;22411;53.016;18.632;2023-07-29T00:48:01;99938.94;;;15.41;100.00
36380;BME280;22411;53.016;18.632;2023-07-29T00:50:28;99940.06;;;15.39;100.00
36380;BME280;22411;53.016;18.632;2023-07-29T00:52:56;99937.59;;;15.37;100.00
36380;BME280;22411;53.016;18.632;2023-07-29T00:55:21;99935.53;;;15.41;100.00
36380;BME280;22411;53.016;18.632;2023-07-29T00:57:47;99938.34;;;15.30;100.00
36380;BME280;22411;53.016;18.632;2023-07-29T01:00:15;99941.25;;;15.27;100.00
36380;BME280;22411;53.016;18.632;2023-07-29T01:02:44;99936.63;;;15.21;100.00
36380;BME280;22411;53.016;18.632;2023-07-29T01:05:12;99941.31;;;15.17;100.00
36380;BME280;22411;53.016;18.632;2023-07-29T01:08:09;99935.97;;;15.19;100.00
36380;BME280;22411;53.016;18.632;2023-07-29T01:10:58;99936.25;;;15.15;100.00
36380;BME280;22411;53.016;18.632;2023-07-29T01:13:50;99936.69;;;15.11;100.00
36380;BME280;22411;53.016;18.632;2023-07-29T01:16:30;99929.16;;;15.08;100.00
36380;BME280;22411;53.016;18.632;2023-07-29T01:18:59;99929.47;;;15.05;100.00
36380;BME280;22411;53.016;18.632;2023-07-29T01:21:29;99934.84;;;15.03;100.00
36380;BME280;22411;53.016;18.632;2023-07-29T01:23:59;99942.13;;;15.00;100.00
36380;BME280;22411;53.016;18.632;2023-07-29T01:26:25;99937.06;;;14.98;100.00
36380;BME280;22411;53.016;18.632;2023-07-29T01:28:51;99938.91;;;14.88;100.00
36380;BME280;22411;53.016;18.632;2023-07-29T01:31:25;99934.94;;;14.84;100.00
36380;BME280;22411;53.016;18.632;2023-07-29T01:33:59;99928.22;;;14.81;100.00
36380;BME280;22411;53.016;18.632;2023-07-29T01:36:28;99931.94;;;14.79;100.00
36380;BME280;22411;53.016;18.632;2023-07-29T01:38:56;99921.28;;;14.72;100.00
36380;BME280;22411;53.016;18.632;2023-07-29T01:41:24;99930.06;;;14.71;100.00
36380;BME280;22411;53.016;18.632;2023-07-29T01:43:50;99936.38;;;14.69;100.00
36380;BME280;22411;53.016;18.632;2023-07-29T01:46:17;99933.94;;;14.67;100.00
36380;BME280;22411;53.016;18.632;2023-07-29T01:48:43;99933.94;;;14.67;100.00
36380;BME280;22411;53.016;18.632;2023-07-29T01:51:11;99930.50;;;14.67;100.00
36380;BME280;22411;53.016;18.632;2023-07-29T01:53:37;99926.22;;;14.65;100.00
36380;BME280;22411;53.016;18.632;2023-07-29T01:56:03;99931.44;;;14.65;100.00
36380;BME280;22411;53.016;18.632;2023-07-29T01:58:29;99926.38;;;14.64;100.00
36380;BME280;22411;53.016;18.632;2023-07-29T02:00:54;99926.38;;;14.64;100.00
36380;BME280;22411;53.016;18.632;2023-07-29T02:03:20;99931.75;;;14.62;100.00
36380;BME280;22411;53.016;18.632;2023-07-29T02:05:46;99926.00;;;14.59;100.00
36380;BME280;22411;53.016;18.632;2023-07-29T02:08:11;99932.03;;;14.59;100.00
36380;BME280;22411;53.016;18.632;2023-07-29T02:10:37;99932.47;;;14.55;100.00
36380;BME280;22411;53.016;18.632;2023-07-29T02:13:04;99929.84;;;14.55;100.00
36380;BME280;22411;53.016;18.632;2023-07-29T02:15:29;99941.66;;;14.59;100.00
36380;BME280;22411;53.016;18.632;2023-07-29T02:17:55;99934.78;;;14.58;100.00
36380;BME280;22411;53.016;18.632;2023-07-29T02:20:21;99935.63;;;14.58;100.00
36380;BME280;22411;53.016;18.632;2023-07-29T02:22:46;99946.84;;;14.59;100.00
36380;BME280;22411;53.016;18.632;2023-07-29T02:25:14;99946.84;;;14.59;100.00
36380;BME280;22411;53.016;18.632;2023-07-29T02:27:39;99948.09;;;14.55;100.00
36380;BME280;22411;53.016;18.632;2023-07-29T02:30:06;99947.59;;;14.51;100.00
36380;BME280;22411;53.016;18.632;2023-07-29T02:32:31;99962.41;;;14.51;100.00
36380;BME280;22411;53.016;18.632;2023-07-29T02:34:57;99959.25;;;14.47;100.00
36380;BME280;22411;53.016;18.632;2023-07-29T02:37:23;99954.28;;;14.44;100.00
36380;BME280;22411;53.016;18.632;2023-07-29T02:39:48;99946.63;;;14.43;100.00
36380;BME280;22411;53.016;18.632;2023-07-29T02:42:14;99957.72;;;14.45;100.00
36380;BME280;22411;53.016;18.632;2023-07-29T02:44:40;99960.47;;;14.43;100.00
36380;BME280;22411;53.016;18.632;2023-07-29T02:47:06;99962.25;;;14.43;100.00
36380;BME280;22411;53.016;18.632;2023-07-29T02:49:31;99966.25;;;14.37;100.00
36380;BME280;22411;53.016;18.632;2023-07-29T02:51:57;99965.06;;;14.31;100.00
36380;BME280;22411;53.016;18.632;2023-07-29T02:54:22;99963.53;;;14.29;100.00
36380;BME280;22411;53.016;18.632;2023-07-29T02:56:50;99960.56;;;14.24;100.00
36380;BME280;22411;53.016;18.632;2023-07-29T02:59:15;99965.06;;;14.22;100.00
36380;BME280;22411;53.016;18.632;2023-07-29T03:01:42;99963.69;;;14.18;100.00
36380;BME280;22411;53.016;18.632;2023-07-29T03:04:07;99968.09;;;14.17;100.00
36380;BME280;22411;53.016;18.632;2023-07-29T03:06:33;99965.50;;;14.17;100.00
36380;BME280;22411;53.016;18.632;2023-07-29T03:08:59;99967.69;;;14.22;100.00
36380;BME280;22411;53.016;18.632;2023-07-29T03:11:24;99965.78;;;14.24;100.00
36380;BME280;22411;53.016;18.632;2023-07-29T03:13:50;99966.59;;;14.24;100.00
36380;BME280;22411;53.016;18.632;2023-07-29T03:16:17;99970.84;;;14.25;100.00
36380;BME280;22411;53.016;18.632;2023-07-29T03:18:43;99976.03;;;14.25;100.00
36380;BME280;22411;53.016;18.632;2023-07-29T03:21:10;99979.63;;;14.24;100.00
36380;BME280;22411;53.016;18.632;2023-07-29T03:23:36;99969.47;;;14.21;100.00
36380;BME280;22411;53.016;18.632;2023-07-29T03:26:03;99980.72;;;14.22;100.00
36380;BME280;22411;53.016;18.632;2023-07-29T03:28:36;99979.06;;;14.21;100.00
36380;BME280;22411;53.016;18.632;2023-07-29T03:31:02;99984.28;;;14.21;100.00
36380;BME280;22411;53.016;18.632;2023-07-29T03:33:28;99991.94;;;14.22;100.00
36380;BME280;22411;53.016;18.632;2023-07-29T03:35:54;99990.03;;;14.24;100.00
36380;BME280;22411;53.016;18.632;2023-07-29T03:38:19;99990.72;;;14.26;100.00
36380;BME280;22411;53.016;18.632;2023-07-29T03:40:45;99993.06;;;14.29;100.00
36380;BME280;22411;53.016;18.632;2023-07-29T03:43:11;99989.75;;;14.27;100.00
36380;BME280;22411;53.016;18.632;2023-07-29T03:45:37;99981.66;;;14.30;100.00
36380;BME280;22411;53.016;18.632;2023-07-29T03:48:03;99982.31;;;14.32;100.00
36380;BME280;22411;53.016;18.632;2023-07-29T03:50:30;99994.28;;;14.35;100.00
36380;BME280;22411;53.016;18.632;2023-07-29T03:52:56;99987.94;;;14.37;100.00
36380;BME280;22411;53.016;18.632;2023-07-29T03:55:22;99992.59;;;14.44;100.00
36380;BME280;22411;53.016;18.632;2023-07-29T03:57:47;100002.75;;;14.47;100.00
36380;BME280;22411;53.016;18.632;2023-07-29T04:00:13;99995.03;;;14.55;100.00
36380;BME280;22411;53.016;18.632;2023-07-29T04:02:41;100000.53;;;14.61;100.00
36380;BME280;22411;53.016;18.632;2023-07-29T04:05:07;100000.94;;;14.67;100.00
36380;BME280;22411;53.016;18.632;2023-07-29T04:07:40;99994.75;;;14.68;100.00
36380;BME280;22411;53.016;18.632;2023-07-29T04:10:06;99994.03;;;14.65;100.00
36380;BME280;22411;53.016;18.632;2023-07-29T04:12:32;99999.81;;;14.69;100.00
36380;BME280;22411;53.016;18.632;2023-07-29T04:14:58;99998.41;;;14.75;100.00
36380;BME280;22411;53.016;18.632;2023-07-29T04:17:23;100005.81;;;14.79;100.00
36380;BME280;22411;53.016;18.632;2023-07-29T04:19:49;100000.97;;;14.84;100.00
36380;BME280;22411;53.016;18.632;2023-07-29T04:22:16;99997.63;;;14.92;100.00
36380;BME280;22411;53.016;18.632;2023-07-29T04:24:42;99992.69;;;14.99;100.00
36380;BME280;22411;53.016;18.632;2023-07-29T04:27:07;100007.75;;;15.05;100.00
36380;BME280;22411;53.016;18.632;2023-07-29T04:29:33;100010.44;;;15.13;100.00
36380;BME280;22411;53.016;18.632;2023-07-29T04:32:01;100020.44;;;15.17;100.00
36380;BME280;22411;53.016;18.632;2023-07-29T04:34:27;100017.97;;;15.16;100.00
36380;BME280;22411;53.016;18.632;2023-07-29T04:36:53;100018.84;;;15.07;100.00
36380;BME280;22411;53.016;18.632;2023-07-29T04:39:18;100027.66;;;15.06;100.00
36380;BME280;22411;53.016;18.632;2023-07-29T04:41:44;100027.25;;;15.01;100.00
36380;BME280;22411;53.016;18.632;2023-07-29T04:44:10;100033.06;;;14.95;100.00
36380;BME280;22411;53.016;18.632;2023-07-29T04:46:36;100025.66;;;14.90;100.00
36380;BME280;22411;53.016;18.632;2023-07-29T04:49:02;100019.03;;;14.96;100.00
36380;BME280;22411;53.016;18.632;2023-07-29T04:51:28;100022.19;;;14.99;100.00
36380;BME280;22411;53.016;18.632;2023-07-29T04:53:53;100031.94;;;14.97;100.00
36380;BME280;22411;53.016;18.632;2023-07-29T04:56:19;100033.81;;;14.87;100.00
36380;BME280;22411;53.016;18.632;2023-07-29T04:58:45;100034.50;;;14.79;100.00
36380;BME280;22411;53.016;18.632;2023-07-29T05:01:11;100030.25;;;14.78;100.00
36380;BME280;22411;53.016;18.632;2023-07-29T05:03:36;100026.53;;;14.81;100.00
36380;BME280;22411;53.016;18.632;2023-07-29T05:06:03;100028.88;;;14.74;100.00
36380;BME280;22411;53.016;18.632;2023-07-29T05:08:29;100031.88;;;14.79;100.00
36380;BME280;22411;53.016;18.632;2023-07-29T05:10:55;100023.50;;;14.85;100.00
36380;BME280;22411;53.016;18.632;2023-07-29T05:13:21;100024.56;;;14.93;100.00
36380;BME280;22411;53.016;18.632;2023-07-29T05:15:48;100024.66;;;15.01;100.00
36380;BME280;22411;53.016;18.632;2023-07-29T05:18:15;100033.03;;;15.04;100.00
36380;BME280;22411;53.016;18.632;2023-07-29T05:20:41;100029.16;;;15.08;100.00
36380;BME280;22411;53.016;18.632;2023-07-29T05:23:06;100032.97;;;15.14;100.00
36380;BME280;22411;53.016;18.632;2023-07-29T05:25:32;100035.28;;;15.17;100.00
36380;BME280;22411;53.016;18.632;2023-07-29T05:28:03;100036.63;;;15.21;100.00
36380;BME280;22411;53.016;18.632;2023-07-29T05:30:29;100036.88;;;15.28;100.00
36380;BME280;22411;53.016;18.632;2023-07-29T05:32:57;100039.28;;;15.39;100.00
36380;BME280;22411;53.016;18.632;2023-07-29T05:35:24;100039.66;;;15.44;100.00
36380;BME280;22411;53.016;18.632;2023-07-29T05:37:50;100038.41;;;15.48;100.00
36380;BME280;22411;53.016;18.632;2023-07-29T05:40:15;100041.09;;;15.56;100.00
36380;BME280;22411;53.016;18.632;2023-07-29T05:42:41;100042.31;;;15.62;100.00
36380;BME280;22411;53.016;18.632;2023-07-29T05:45:07;100052.19;;;15.68;100.00
36380;BME280;22411;53.016;18.632;2023-07-29T05:47:33;100046.53;;;15.73;100.00
36380;BME280;22411;53.016;18.632;2023-07-29T05:49:58;100045.09;;;15.78;100.00
36380;BME280;22411;53.016;18.632;2023-07-29T05:52:25;100043.53;;;15.85;100.00
36380;BME280;22411;53.016;18.632;2023-07-29T05:54:51;100047.19;;;15.92;100.00
36380;BME280;22411;53.016;18.632;2023-07-29T05:57:16;100045.91;;;15.97;100.00
36380;BME280;22411;53.016;18.632;2023-07-29T05:59:42;100049.88;;;16.01;100.00
36380;BME280;22411;53.016;18.632;2023-07-29T06:02:08;100049.56;;;16.04;100.00
36380;BME280;22411;53.016;18.632;2023-07-29T06:04:33;100041.13;;;16.10;100.00
36380;BME280;22411;53.016;18.632;2023-07-29T06:06:59;100040.50;;;16.16;100.00
36380;BME280;22411;53.016;18.632;2023-07-29T06:09:24;100048.44;;;16.24;100.00
36380;BME280;22411;53.016;18.632;2023-07-29T06:11:53;100051.38;;;16.29;100.00
36380;BME280;22411;53.016;18.632;2023-07-29T06:14:19;100049.97;;;16.35;100.00
36380;BME280;22411;53.016;18.632;2023-07-29T06:16:44;100048.38;;;16.42;100.00
36380;BME280;22411;53.016;18.632;2023-07-29T06:19:10;100061.50;;;16.50;100.00
36380;BME280;22411;53.016;18.632;2023-07-29T06:21:36;100054.84;;;16.56;100.00
36380;BME280;22411;53.016;18.632;2023-07-29T06:24:01;100055.06;;;16.62;100.00
36380;BME280;22411;53.016;18.632;2023-07-29T06:26:27;100055.09;;;16.70;100.00
36380;BME280;22411;53.016;18.632;2023-07-29T06:28:53;100059.72;;;16.77;100.00
36380;BME280;22411;53.016;18.632;2023-07-29T06:31:19;100059.78;;;16.85;100.00
36380;BME280;22411;53.016;18.632;2023-07-29T06:33:45;100053.91;;;16.91;100.00
36380;BME280;22411;53.016;18.632;2023-07-29T06:36:12;100056.88;;;16.96;100.00
36380;BME280;22411;53.016;18.632;2023-07-29T06:38:37;100052.69;;;17.03;100.00
36380;BME280;22411;53.016;18.632;2023-07-29T06:41:04;100060.38;;;17.13;100.00
36380;BME280;22411;53.016;18.632;2023-07-29T06:43:30;100060.44;;;17.21;100.00
36380;BME280;22411;53.016;18.632;2023-07-29T06:45:55;100063.22;;;17.28;100.00
36380;BME280;22411;53.016;18.632;2023-07-29T06:48:21;100061.63;;;17.35;100.00
36380;BME280;22411;53.016;18.632;2023-07-29T06:50:47;100063.75;;;17.39;100.00
36380;BME280;22411;53.016;18.632;2023-07-29T06:53:12;100065.41;;;17.48;100.00
36380;BME280;22411;53.016;18.632;2023-07-29T06:55:39;100069.69;;;17.58;100.00
36380;BME280;22411;53.016;18.632;2023-07-29T06:58:05;100067.91;;;17.66;100.00
36380;BME280;22411;53.016;18.632;2023-07-29T07:00:30;100066.31;;;17.73;100.00
36380;BME280;22411;53.016;18.632;2023-07-29T07:02:56;100071.06;;;17.86;100.00
36380;BME280;22411;53.016;18.632;2023-07-29T07:05:22;100064.56;;;17.98;100.00
36380;BME280;22411;53.016;18.632;2023-07-29T07:07:47;100060.78;;;18.09;100.00
36380;BME280;22411;53.016;18.632;2023-07-29T07:10:14;100066.50;;;18.21;100.00
36380;BME280;22411;53.016;18.632;2023-07-29T07:12:39;100062.38;;;18.35;100.00
36380;BME280;22411;53.016;18.632;2023-07-29T07:15:06;100056.66;;;18.47;100.00
36380;BME280;22411;53.016;18.632;2023-07-29T07:17:31;100059.75;;;18.59;100.00
36380;BME280;22411;53.016;18.632;2023-07-29T07:19:57;100057.47;;;18.72;100.00
36380;BME280;22411;53.016;18.632;2023-07-29T07:22:22;100053.66;;;18.83;100.00
36380;BME280;22411;53.016;18.632;2023-07-29T07:24:49;100057.34;;;18.97;100.00
36380;BME280;22411;53.016;18.632;2023-07-29T07:27:15;100055.84;;;19.11;100.00
36380;BME280;22411;53.016;18.632;2023-07-29T07:29:40;100061.53;;;19.22;100.00
36380;BME280;22411;53.016;18.632;2023-07-29T07:32:06;100059.00;;;19.37;100.00
36380;BME280;22411;53.016;18.632;2023-07-29T07:34:32;100061.88;;;19.50;100.00
36380;BME280;22411;53.016;18.632;2023-07-29T07:36:58;100062.16;;;19.64;100.00
36380;BME280;22411;53.016;18.632;2023-07-29T07:39:24;100066.00;;;19.76;100.00
36380;BME280;22411;53.016;18.632;2023-07-29T07:41:49;100058.22;;;19.82;100.00
36380;BME280;22411;53.016;18.632;2023-07-29T07:44:15;100057.66;;;19.95;100.00
36380;BME280;22411;53.016;18.632;2023-07-29T07:46:43;100052.44;;;20.10;100.00
36380;BME280;22411;53.016;18.632;2023-07-29T07:49:09;100055.75;;;20.27;100.00
36380;BME280;22411;53.016;18.632;2023-07-29T07:51:35;100054.31;;;20.39;100.00
36380;BME280;22411;53.016;18.632;2023-07-29T07:54:00;100059.66;;;20.31;100.00
36380;BME280;22411;53.016;18.632;2023-07-29T07:56:26;100047.13;;;20.33;100.00
36380;BME280;22411;53.016;18.632;2023-07-29T07:58:55;100040.06;;;20.33;100.00
36380;BME280;22411;53.016;18.632;2023-07-29T08:01:21;100050.41;;;20.35;100.00
36380;BME280;22411;53.016;18.632;2023-07-29T08:03:46;100045.84;;;20.52;100.00
36380;BME280;22411;53.016;18.632;2023-07-29T08:06:12;100043.78;;;20.62;100.00
36380;BME280;22411;53.016;18.632;2023-07-29T08:08:38;100053.13;;;20.79;100.00
36380;BME280;22411;53.016;18.632;2023-07-29T08:11:03;100050.47;;;20.94;100.00
36380;BME280;22411;53.016;18.632;2023-07-29T08:13:29;100048.06;;;21.14;100.00
36380;BME280;22411;53.016;18.632;2023-07-29T08:15:55;100049.34;;;21.33;100.00
36380;BME280;22411;53.016;18.632;2023-07-29T08:18:20;100053.38;;;21.50;100.00
36380;BME280;22411;53.016;18.632;2023-07-29T08:20:59;100054.41;;;21.71;100.00
36380;BME280;22411;53.016;18.632;2023-07-29T08:23:32;100047.88;;;21.88;100.00
36380;BME280;22411;53.016;18.632;2023-07-29T08:26:00;100041.41;;;21.90;100.00
36380;BME280;22411;53.016;18.632;2023-07-29T08:28:34;100041.34;;;22.05;100.00
36380;BME280;22411;53.016;18.632;2023-07-29T08:31:00;100046.56;;;22.20;100.00
36380;BME280;22411;53.016;18.632;2023-07-29T08:33:26;100043.63;;;22.36;100.00
36380;BME280;22411;53.016;18.632;2023-07-29T08:35:52;100049.97;;;22.42;100.00
36380;BME280;22411;53.016;18.632;2023-07-29T08:38:18;100047.03;;;22.58;100.00
36380;BME280;22411;53.016;18.632;2023-07-29T08:41:06;100051.31;;;22.66;100.00
36380;BME280;22411;53.016;18.632;2023-07-29T08:43:38;100038.09;;;22.59;100.00
36380;BME280;22411;53.016;18.632;2023-07-29T08:46:04;100029.03;;;22.75;100.00
36380;BME280;22411;53.016;18.632;2023-07-29T08:48:42;100026.66;;;22.87;100.00
36380;BME280;22411;53.016;18.632;2023-07-29T08:51:09;100026.94;;;22.99;100.00
36380;BME280;22411;53.016;18.632;2023-07-29T08:53:36;100024.28;;;22.99;100.00
36380;BME280;22411;53.016;18.632;2023-07-29T08:56:02;100023.97;;;23.15;100.00
36380;BME280;22411;53.016;18.632;2023-07-29T08:58:29;100014.47;;;23.40;100.00
36380;BME280;22411;53.016;18.632;2023-07-29T09:00:54;100025.75;;;23.76;100.00
36380;BME280;22411;53.016;18.632;2023-07-29T09:03:21;100023.31;;;23.94;100.00
36380;BME280;22411;53.016;18.632;2023-07-29T09:05:47;100014.56;;;24.00;100.00
36380;BME280;22411;53.016;18.632;2023-07-29T09:08:14;100019.84;;;24.00;100.00
36380;BME280;22411;53.016;18.632;2023-07-29T09:10:40;100016.97;;;24.15;100.00
36380;BME280;22411;53.016;18.632;2023-07-29T09:13:07;100016.16;;;24.41;100.00
36380;BME280;22411;53.016;18.632;2023-07-29T09:15:36;100021.41;;;24.61;100.00
36380;BME280;22411;53.016;18.632;2023-07-29T09:18:10;100021.41;;;24.67;100.00
36380;BME280;22411;53.016;18.632;2023-07-29T09:20:36;100018.72;;;24.81;100.00
36380;BME280;22411;53.016;18.632;2023-07-29T09:23:02;100012.97;;;24.90;100.00
36380;BME280;22411;53.016;18.632;2023-07-29T09:25:29;100018.63;;;25.07;100.00
36380;BME280;22411;53.016;18.632;2023-07-29T09:28:01;100014.69;;;25.23;100.00
36380;BME280;22411;53.016;18.632;2023-07-29T09:30:28;100015.63;;;25.35;100.00
36380;BME280;22411;53.016;18.632;2023-07-29T09:32:57;100008.03;;;25.45;100.00
36380;BME280;22411;53.016;18.632;2023-07-29T09:35:23;100007.50;;;25.62;100.00
36380;BME280;22411;53.016;18.632;2023-07-29T09:37:50;100014.88;;;25.91;100.00
36380;BME280;22411;53.016;18.632;2023-07-29T09:40:17;100007.50;;;25.93;100.00
36380;BME280;22411;53.016;18.632;2023-07-29T09:42:54;100007.22;;;26.01;100.00
36380;BME280;22411;53.016;18.632;2023-07-29T09:45:26;100004.72;;;26.06;100.00
36380;BME280;22411;53.016;18.632;2023-07-29T09:47:53;100000.88;;;26.27;100.00
36380;BME280;22411;53.016;18.632;2023-07-29T09:50:23;100007.78;;;26.53;100.00
36380;BME280;22411;53.016;18.632;2023-07-29T09:52:50;99996.44;;;26.40;100.00
36380;BME280;22411;53.016;18.632;2023-07-29T09:55:22;100003.81;;;26.38;100.00
36380;BME280;22411;53.016;18.632;2023-07-29T09:57:59;99991.75;;;26.60;100.00
36380;BME280;22411;53.016;18.632;2023-07-29T10:00:31;99990.91;;;26.78;100.00
36380;BME280;22411;53.016;18.632;2023-07-29T10:02:58;99994.91;;;26.87;100.00
36380;BME280;22411;53.016;18.632;2023-07-29T10:05:28;99998.13;;;26.89;100.00
36380;BME280;22411;53.016;18.632;2023-07-29T10:07:55;99996.53;;;26.88;99.92
36380;BME280;22411;53.016;18.632;2023-07-29T10:10:21;100003.34;;;26.84;93.82
36380;BME280;22411;53.016;18.632;2023-07-29T10:12:47;100001.94;;;26.63;96.78
36380;BME280;22411;53.016;18.632;2023-07-29T10:15:13;100004.31;;;26.53;100.00
36380;BME280;22411;53.016;18.632;2023-07-29T10:17:39;100009.03;;;26.69;96.63
36380;BME280;22411;53.016;18.632;2023-07-29T10:20:10;99997.41;;;26.82;97.13
36380;BME280;22411;53.016;18.632;2023-07-29T10:22:41;100002.59;;;26.77;98.34
36380;BME280;22411;53.016;18.632;2023-07-29T10:25:17;99997.91;;;27.09;96.77
36380;BME280;22411;53.016;18.632;2023-07-29T10:27:49;99987.56;;;27.19;93.39
36380;BME280;22411;53.016;18.632;2023-07-29T10:30:17;99987.41;;;27.44;92.52
36380;BME280;22411;53.016;18.632;2023-07-29T10:32:44;99984.25;;;27.77;92.26
36380;BME280;22411;53.016;18.632;2023-07-29T10:35:11;99982.97;;;28.03;85.25
36380;BME280;22411;53.016;18.632;2023-07-29T10:37:38;99988.19;;;28.22;91.45
36380;BME280;22411;53.016;18.632;2023-07-29T10:40:08;99997.31;;;28.61;84.99
36380;BME280;22411;53.016;18.632;2023-07-29T10:42:35;99991.22;;;28.49;93.29
36380;BME280;22411;53.016;18.632;2023-07-29T10:45:17;99984.38;;;28.18;86.34
36380;BME280;22411;53.016;18.632;2023-07-29T10:47:43;99974.53;;;27.95;88.51
36380;BME280;22411;53.016;18.632;2023-07-29T10:50:18;99978.47;;;28.04;83.94
36380;BME280;22411;53.016;18.632;2023-07-29T10:52:49;99980.19;;;28.45;83.30
36380;BME280;22411;53.016;18.632;2023-07-29T10:57:51;99965.59;;;28.36;88.81
36380;BME280;22411;53.016;18.632;2023-07-29T11:00:19;99963.03;;;28.29;90.01
36380;BME280;22411;53.016;18.632;2023-07-29T11:02:59;99963.31;;;28.68;83.29
36380;BME280;22411;53.016;18.632;2023-07-29T11:05:51;99960.31;;;29.05;79.57
36380;BME280;22411;53.016;18.632;2023-07-29T11:08:28;99954.25;;;28.81;82.83
36380;BME280;22411;53.016;18.632;2023-07-29T11:11:02;99956.66;;;28.94;79.82
36380;BME280;22411;53.016;18.632;2023-07-29T11:13:29;99971.25;;;29.03;78.02
36380;BME280;22411;53.016;18.632;2023-07-29T11:15:55;99962.59;;;28.96;76.38
36380;BME280;22411;53.016;18.632;2023-07-29T11:18:31;99952.06;;;28.78;78.29
36380;BME280;22411;53.016;18.632;2023-07-29T11:20:57;99954.81;;;28.54;78.50
36380;BME280;22411;53.016;18.632;2023-07-29T11:23:34;99945.44;;;28.40;82.57
36380;BME280;22411;53.016;18.632;2023-07-29T11:26:01;99947.31;;;28.80;78.58
36380;BME280;22411;53.016;18.632;2023-07-29T11:28:27;99946.44;;;29.20;73.93
36380;BME280;22411;53.016;18.632;2023-07-29T11:30:56;99946.34;;;29.60;70.00
36380;BME280;22411;53.016;18.632;2023-07-29T11:33:26;99941.41;;;29.68;70.04
36380;BME280;22411;53.016;18.632;2023-07-29T11:35:54;99938.13;;;30.17;74.04
36380;BME280;22411;53.016;18.632;2023-07-29T11:38:21;99948.44;;;30.74;70.04
36380;BME280;22411;53.016;18.632;2023-07-29T11:41:18;99939.53;;;30.68;62.05
36380;BME280;22411;53.016;18.632;2023-07-29T11:43:44;99932.91;;;30.49;63.13
36380;BME280;22411;53.016;18.632;2023-07-29T11:46:10;99922.03;;;30.56;68.69
36380;BME280;22411;53.016;18.632;2023-07-29T11:48:36;99922.38;;;30.42;70.62
36380;BME280;22411;53.016;18.632;2023-07-29T11:51:02;99927.38;;;29.78;71.85
36380;BME280;22411;53.016;18.632;2023-07-29T11:53:29;99921.69;;;29.69;73.03
36380;BME280;22411;53.016;18.632;2023-07-29T11:55:56;99915.28;;;30.09;68.02
36380;BME280;22411;53.016;18.632;2023-07-29T11:58:21;99911.19;;;30.67;64.70
36380;BME280;22411;53.016;18.632;2023-07-29T12:00:48;99902.47;;;31.04;66.02
36380;BME280;22411;53.016;18.632;2023-07-29T12:03:14;99911.06;;;31.06;61.92
36380;BME280;22411;53.016;18.632;2023-07-29T12:05:41;99905.59;;;30.69;63.88
36380;BME280;22411;53.016;18.632;2023-07-29T12:08:08;99901.00;;;30.42;65.53
36380;BME280;22411;53.016;18.632;2023-07-29T12:10:34;99903.69;;;30.20;63.89
36380;BME280;22411;53.016;18.632;2023-07-29T12:13:02;99891.22;;;30.09;66.48
36380;BME280;22411;53.016;18.632;2023-07-29T12:15:29;99890.53;;;30.14;66.83
36380;BME280;22411;53.016;18.632;2023-07-29T12:17:59;99875.97;;;29.66;73.97
36380;BME280;22411;53.016;18.632;2023-07-29T12:20:26;99876.84;;;29.72;76.36
36380;BME280;22411;53.016;18.632;2023-07-29T12:22:54;99869.63;;;29.72;76.40
36380;BME280;22411;53.016;18.632;2023-07-29T12:25:19;99870.56;;;29.83;77.61
36380;BME280;22411;53.016;18.632;2023-07-29T12:27:46;99858.38;;;30.09;72.82
36380;BME280;22411;53.016;18.632;2023-07-29T12:30:12;99857.41;;;30.15;73.93
36380;BME280;22411;53.016;18.632;2023-07-29T12:32:45;99859.84;;;30.00;73.69
36380;BME280;22411;53.016;18.632;2023-07-29T12:35:11;99848.75;;;30.30;72.16
36380;BME280;22411;53.016;18.632;2023-07-29T12:37:37;99851.38;;;30.52;66.96
36380;BME280;22411;53.016;18.632;2023-07-29T12:40:04;99847.75;;;30.36;68.60
36380;BME280;22411;53.016;18.632;2023-07-29T12:42:30;99844.84;;;30.15;70.70